Hauptseite
METAR-TAF:

METAR-TAF

Flughäfen :

Militärflugplatz Volkel

Uden, Niederlande

Breite: 51-39N, Länge: 005-42E, Höhe: 22 m

Beobachtung

Neuester Wetterbericht von vor 17 Minuten, um 15:55 UTC
Wind 4 kt aus unterschiedlichen Richtungen
Temperatur 30°C
Luftfeuchtigkeit 25%
Luftdruck 1011 hPa
Sichtweite 10 km oder mehr
Geschlossene Wolkendecke in der Höhe von 24000 ft

METAR: EHVK 161555Z AUTO VRB04KT 9999 OVC240 30/08 Q1011 BLU

Zeit: 18:12 (16:12 UTC)

Prognose

Neuester Wetterbericht von vor 3 Stunden und 24 Minuten, um 12:48 UTC
Gültige Prognose vom 16 um 13 UTC bis 17 um 01 UTC
Wind 5 kt aus Nord/Nordost
Sichtweite 10 km oder mehr
keine Wolken unter 1500 m und keine Kumulonimbus oder Gewitterwolken

TAF: EHVK 161248Z 1613/1701 03005KT CAVOK

Wetterbeobachtungen und Prognosen von mehr als 4000 Flughäfen (METAR und TAF Bericht).

Die verfügbaren Stationen werden durch gelbe und rote Markierungen auf der Karte dargestellt.

Führen Sie die Maus auf sie, um den Namen der Station zu sehen.

Darauf klicken, um die Beobachtung von Wetterbeobachtungen und Prognosen zu sehen.

Um die Karte zu ändern : klicken Sie auf den grünen Tasten mit einem schwarzen Kreuz Zum Vergrößern, auf den grünen Button mit einem Gedankenstrich zu verkleinern, oder auf die grünen Pfeile für benachbarte Karten.


METAR-TAF: